Time;durP1;ratioP1;P1;durP2;ratioP2;P2;SDS_P1;SDS_P2;PMS_P1;PMS_P2;Temp;Humidity;BMP_temperature;BMP_pressure;BME280_temperature;BME280_humidity;BME280_pressure;Samples;Min_cycle;Max_cycle;Signal;HPM_P1;HPM_P2
2023/02/27 00:02:14;;;;;;;45.90;20.00;;;;;;;-1.15;100.00;98334.76;106009;1256;61326;-79
2023/02/27 00:04:41;;;;;;;32.10;15.90;;;;;;;-1.15;100.00;98333.52;106046;1258;61233;-79
2023/02/27 00:07:07;;;;;;;34.90;17.20;;;;;;;-1.18;100.00;98329.39;105920;1256;251580;-79
2023/02/27 00:09:34;;;;;;;32.70;16.80;;;;;;;-1.19;100.00;98332.70;106059;1255;61444;-79
2023/02/27 00:12:01;;;;;;;32.40;15.90;;;;;;;-1.21;100.00;98334.46;106069;1254;61365;-78
2023/02/27 00:14:27;;;;;;;30.30;14.80;;;;;;;-1.23;100.00;98340.52;105974;1254;61343;-77
2023/02/27 00:16:54;;;;;;;32.10;15.90;;;;;;;-1.25;100.00;98343.26;106097;1254;61337;-77
2023/02/27 00:19:20;;;;;;;37.10;17.40;;;;;;;-1.24;100.00;98344.20;106075;1254;61235;-78
2023/02/27 00:21:47;;;;;;;44.30;17.10;;;;;;;-1.25;100.00;98342.81;106038;1255;61265;-77
2023/02/27 00:24:13;;;;;;;34.90;15.50;;;;;;;-1.28;100.00;98345.16;106017;1254;61461;-78
2023/02/27 00:26:39;;;;;;;32.50;14.80;;;;;;;-1.32;100.00;98346.65;106092;1254;61279;-77
2023/02/27 00:29:06;;;;;;;33.80;14.00;;;;;;;-1.31;100.00;98346.29;106034;1254;61339;-78
2023/02/27 00:31:33;;;;;;;42.40;17.60;;;;;;;-1.31;100.00;98343.71;106046;1254;61232;-78
2023/02/27 00:34:00;;;;;;;40.80;16.80;;;;;;;-1.28;100.00;98342.46;106061;1254;73009;-78
2023/02/27 00:36:26;;;;;;;36.70;16.40;;;;;;;-1.29;100.00;98335.34;106019;1254;61090;-78
2023/02/27 00:38:53;;;;;;;29.90;15.30;;;;;;;-1.24;100.00;98333.56;106081;1254;61362;-77
2023/02/27 00:41:19;;;;;;;35.20;15.90;;;;;;;-1.20;100.00;98334.88;106048;1254;61179;-78
2023/02/27 00:43:46;;;;;;;32.40;14.30;;;;;;;-1.20;100.00;98339.27;106054;1256;61330;-78
2023/02/27 00:46:12;;;;;;;36.60;16.70;;;;;;;-1.23;100.00;98342.28;106005;1254;61327;-77
2023/02/27 00:48:38;;;;;;;33.90;18.90;;;;;;;-1.23;100.00;98342.36;106022;1254;61373;-78
2023/02/27 00:51:05;;;;;;;32.80;16.70;;;;;;;-1.25;100.00;98340.20;106075;1254;61241;-78
2023/02/27 00:53:31;;;;;;;31.90;16.00;;;;;;;-1.24;100.00;98339.58;106016;1254;62313;-78
2023/02/27 00:55:58;;;;;;;34.90;15.00;;;;;;;-1.25;100.00;98340.27;106061;1258;61356;-78
2023/02/27 00:58:24;;;;;;;30.70;14.90;;;;;;;-1.23;100.00;98342.89;106033;1254;61157;-78
2023/02/27 01:00:50;;;;;;;35.90;16.60;;;;;;;-1.25;100.00;98343.70;106023;1254;61353;-78
2023/02/27 01:03:17;;;;;;;30.80;16.50;;;;;;;-1.27;100.00;98345.73;106084;1254;62032;-78
2023/02/27 01:05:43;;;;;;;44.00;20.00;;;;;;;-1.28;100.00;98347.73;106071;1259;61317;-78
2023/02/27 01:08:10;;;;;;;31.10;16.40;;;;;;;-1.31;100.00;98348.66;106091;1258;61457;-78
2023/02/27 01:10:36;;;;;;;34.90;15.60;;;;;;;-1.28;100.00;98349.36;106043;1257;61271;-77
2023/02/27 01:13:02;;;;;;;42.30;16.90;;;;;;;-1.27;100.00;98351.56;105998;1254;61352;-77
2023/02/27 01:15:29;;;;;;;35.60;15.40;;;;;;;-1.24;100.00;98355.90;106069;1259;61362;-78
2023/02/27 01:17:55;;;;;;;34.70;17.30;;;;;;;-1.22;100.00;98354.71;106146;1254;61279;-78
2023/02/27 01:20:22;;;;;;;34.90;14.90;;;;;;;-1.21;100.00;98356.17;105999;1259;61298;-78
2023/02/27 01:22:48;;;;;;;35.70;14.60;;;;;;;-1.23;100.00;98358.84;106049;1259;61285;-78
2023/02/27 01:25:14;;;;;;;36.00;16.50;;;;;;;-1.28;100.00;98356.93;106074;1254;61289;-78
2023/02/27 01:27:41;;;;;;;33.90;15.30;;;;;;;-1.26;100.00;98360.19;106017;1259;61294;-78
2023/02/27 01:30:10;;;;;;;36.70;17.00;;;;;;;-1.23;100.00;98363.42;106008;1259;61346;-78
2023/02/27 01:32:36;;;;;;;;;;;;;;;-1.22;100.00;98366.09;106250;1258;61215;-78
2023/02/27 01:35:03;;;;;;;29.60;14.10;;;;;;;-1.23;100.00;98363.96;106070;1254;61407;-78
2023/02/27 01:37:29;;;;;;;26.90;14.20;;;;;;;-1.23;100.00;98364.17;106159;1254;61350;-79
2023/02/27 01:39:56;;;;;;;31.60;16.20;;;;;;;-1.23;100.00;98367.15;106045;1254;61224;-78
2023/02/27 01:42:24;;;;;;;38.30;18.30;;;;;;;-1.24;100.00;98369.77;106009;1254;61285;-77
2023/02/27 01:45:06;;;;;;;47.70;20.30;;;;;;;-1.22;100.00;98370.02;106029;1258;69787;-78
2023/02/27 01:47:33;;;;;;;37.00;15.30;;;;;;;-1.23;100.00;98371.98;106058;1254;71430;-78
2023/02/27 01:49:59;;;;;;;39.40;17.40;;;;;;;-1.22;100.00;98373.58;106052;1259;61349;-78
2023/02/27 01:52:25;;;;;;;25.50;15.10;;;;;;;-1.25;100.00;98371.23;106047;1254;61288;-78
2023/02/27 01:54:52;;;;;;;28.40;14.20;;;;;;;-1.27;100.00;98367.30;105997;1254;61368;-77
2023/02/27 01:57:18;;;;;;;30.60;14.90;;;;;;;-1.26;100.00;98367.64;106064;1254;61785;-78
2023/02/27 01:59:45;;;;;;;29.80;14.20;;;;;;;-1.24;100.00;98369.44;106014;1258;61122;-77
2023/02/27 02:02:15;;;;;;;21.90;11.40;;;;;;;-1.25;100.00;98371.45;106063;1254;61369;-78
2023/02/27 02:04:42;;;;;;;20.60;11.30;;;;;;;-1.29;100.00;98369.66;106040;1258;61310;-78
2023/02/27 02:07:10;;;;;;;25.20;11.90;;;;;;;-1.31;100.00;98366.24;106237;1254;61354;-77
2023/02/27 02:09:50;;;;;;;27.00;10.80;;;;;;;-1.32;100.00;98364.92;106093;1254;69891;-78
2023/02/27 02:12:17;;;;;;;25.60;12.70;;;;;;;-1.31;100.00;98365.18;106187;1254;72770;-77
2023/02/27 02:14:43;;;;;;;29.30;12.90;;;;;;;-1.32;100.00;98358.02;106097;1254;61187;-77
2023/02/27 02:17:25;;;;;;;19.50;11.50;;;;;;;-1.34;100.00;98358.63;106061;1258;63324;-77
2023/02/27 02:20:11;;;;;;;22.00;11.70;;;;;;;-1.36;100.00;98356.73;106015;1254;72943;-78
2023/02/27 02:22:43;;;;;;;27.20;12.10;;;;;;;-1.36;100.00;98355.64;106114;1254;69929;-78
2023/02/27 02:25:29;;;;;;;21.30;11.20;;;;;;;-1.38;100.00;98358.20;106053;1254;71505;-78
2023/02/27 02:28:19;;;;;;;21.80;10.30;;;;;;;-1.39;100.00;98362.10;106070;1258;61257;-78
2023/02/27 02:31:24;;;;;;;22.90;12.40;;;;;;;-1.41;100.00;98364.17;106020;1254;61240;-77
2023/02/27 02:33:56;;;;;;;20.40;11.60;;;;;;;-1.38;100.00;98367.66;105998;1255;65954;-78
2023/02/27 02:36:41;;;;;;;23.60;11.70;;;;;;;-1.38;100.00;98376.30;105961;1259;70056;-77
2023/02/27 02:39:41;;;;;;;19.70;11.30;;;;;;;-1.36;100.00;98378.78;106046;1254;70557;-78
2023/02/27 02:42:25;;;;;;;28.40;13.50;;;;;;;-1.34;100.00;98383.17;106018;1259;61922;-78
2023/02/27 02:45:07;;;;;;;23.40;11.50;;;;;;;-1.34;100.00;98385.42;106041;1254;61250;-77
2023/02/27 02:47:46;;;;;;;26.10;11.50;;;;;;;-1.37;100.00;98387.72;106261;1254;65876;-78
2023/02/27 02:50:35;;;;;;;26.10;12.20;;;;;;;-1.36;100.00;98389.09;106058;1258;71047;-78
2023/02/27 02:53:10;;;;;;;26.00;12.00;;;;;;;-1.39;100.00;98391.88;106068;1254;71721;-77
2023/02/27 02:55:41;;;;;;;27.20;11.80;;;;;;;-1.36;100.00;98394.41;106082;1254;61299;-78
2023/02/27 02:58:42;;;;;;;23.00;10.80;;;;;;;-1.39;100.00;98394.09;106001;1254;61221;-78
2023/02/27 03:01:17;;;;;;;27.50;12.50;;;;;;;-1.39;100.00;98398.83;105989;1254;64867;-78
2023/02/27 03:03:51;;;;;;;20.50;8.60;;;;;;;-1.41;100.00;98398.54;106056;1254;61417;-78
2023/02/27 03:06:21;;;;;;;25.20;9.40;;;;;;;-1.44;100.00;98403.77;105998;1254;72599;-78
2023/02/27 03:08:54;;;;;;;25.70;12.30;;;;;;;-1.41;100.00;98406.10;106131;1254;61149;-78
2023/02/27 03:11:23;;;;;;;22.30;11.30;;;;;;;-1.38;100.00;98405.73;106178;1259;61148;-78
2023/02/27 03:13:53;;;;;;;20.50;10.10;;;;;;;-1.39;100.00;98412.79;105961;1259;74538;-78
2023/02/27 03:16:40;;;;;;;16.50;10.00;;;;;;;-1.39;100.00;98416.21;106070;1259;71419;-78
2023/02/27 03:19:24;;;;;;;22.30;9.20;;;;;;;-1.38;100.00;98420.31;106005;1254;72704;-78
2023/02/27 03:22:04;;;;;;;17.30;8.60;;;;;;;-1.42;100.00;98423.97;106149;1254;61276;-78
2023/02/27 03:24:51;;;;;;;20.90;9.40;;;;;;;-1.39;100.00;98425.21;106393;1257;61265;-77
2023/02/27 03:27:18;;;;;;;22.90;9.60;;;;;;;-1.41;100.00;98425.58;106046;1259;74543;-78
2023/02/27 03:29:59;;;;;;;13.90;7.40;;;;;;;-1.44;100.00;98425.83;106112;1254;61365;-78
2023/02/27 03:32:46;;;;;;;19.10;9.80;;;;;;;-1.40;100.00;98430.27;106067;1254;72576;-78
2023/02/27 03:35:13;;;;;;;17.00;8.10;;;;;;;-1.39;100.00;98432.25;106068;1254;61228;-78
2023/02/27 03:37:57;;;;;;;15.40;7.40;;;;;;;-1.40;100.00;98439.69;106089;1259;61355;-78
2023/02/27 03:40:37;;;;;;;12.70;6.00;;;;;;;-1.43;100.00;98447.49;106088;1259;74578;-78
2023/02/27 03:43:29;;;;;;;13.30;6.10;;;;;;;-1.42;100.00;98453.59;106036;1254;70976;-78
2023/02/27 03:46:10;;;;;;;14.60;6.70;;;;;;;-1.41;99.97;98452.85;106065;1254;72944;-77
2023/02/27 03:48:37;;;;;;;11.00;5.70;;;;;;;-1.41;100.00;98453.06;106086;1259;61278;-77
2023/02/27 03:51:04;;;;;;;8.20;4.80;;;;;;;-1.40;100.00;98454.38;106072;1254;61211;-77
2023/02/27 03:53:53;;;;;;;13.70;6.00;;;;;;;-1.41;98.90;98461.73;106065;1254;73434;-78
2023/02/27 03:56:23;;;;;;;13.90;6.10;;;;;;;-1.40;98.57;98467.20;106050;1254;71262;-77
2023/02/27 03:58:50;;;;;;;15.60;6.70;;;;;;;-1.36;99.98;98471.27;106173;1258;71447;-78
2023/02/27 04:01:16;;;;;;;13.80;6.80;;;;;;;-1.33;99.97;98469.11;105964;1259;61273;-78
2023/02/27 04:03:48;;;;;;;14.50;7.20;;;;;;;-1.32;99.81;98472.52;106090;1259;61208;-77
2023/02/27 04:09:19;;;;;;;10.80;5.10;;;;;;;-1.38;97.35;98472.88;105988;1254;70092;-77
2023/02/27 04:12:10;;;;;;;11.50;5.70;;;;;;;-1.39;97.18;98479.27;105945;1254;72578;-78
2023/02/27 04:15:05;;;;;;;12.40;5.70;;;;;;;-1.38;97.61;98482.20;106031;1254;61125;-77
2023/02/27 04:17:32;;;;;;;16.10;5.20;;;;;;;-1.41;97.01;98483.86;106016;1253;61110;-78
2023/02/27 04:20:20;;;;;;;12.30;5.90;;;;;;;-1.37;98.28;98483.67;106133;1254;74355;-78
2023/02/27 04:22:58;;;;;;;12.60;4.50;;;;;;;-1.45;94.72;98487.63;106040;1258;71077;-78
2023/02/27 04:26:01;;;;;;;8.90;5.30;;;;;;;-1.43;96.04;98487.94;105933;1254;71428;-77
2023/02/27 04:29:07;;;;;;;15.30;5.30;;;;;;;-1.40;97.34;98484.92;106136;1254;61358;-77
2023/02/27 04:31:43;;;;;;;9.10;5.30;;;;;;;-1.43;96.07;98489.98;105592;1264;61184;-78
2023/02/27 04:34:36;;;;;;;9.00;5.20;;;;;;;-1.43;96.88;98488.52;106035;1254;74608;-77
2023/02/27 04:37:28;;;;;;;6.80;3.40;;;;;;;-1.44;95.62;98488.70;105967;1254;70990;-78
2023/02/27 04:40:23;;;;;;;10.00;4.20;;;;;;;-1.49;94.09;98488.33;105992;1254;72579;-77
2023/02/27 04:42:53;;;;;;;10.00;4.30;;;;;;;-1.47;96.39;98485.64;105968;1259;61266;-78
2023/02/27 04:45:21;;;;;;;9.20;5.50;;;;;;;-1.45;96.39;98483.70;106010;1254;61943;-78
2023/02/27 04:47:51;;;;;;;7.70;5.70;;;;;;;-1.47;95.75;98482.20;106134;1254;73174;-78
2023/02/27 04:50:21;;;;;;;8.00;4.90;;;;;;;-1.49;95.54;98486.69;105992;1254;72236;-78
2023/02/27 04:53:02;;;;;;;7.40;4.10;;;;;;;-1.52;95.52;98492.23;106028;1258;70782;-78
2023/02/27 04:55:31;;;;;;;6.80;3.70;;;;;;;-1.53;95.80;98495.78;106026;1254;62241;-78
2023/02/27 04:57:58;;;;;;;;;;;;;;;-1.55;95.01;98499.67;106027;1254;62206;-77
2023/02/27 05:00:25;;;;;;;9.60;3.40;;;;;;;-1.54;95.77;98500.60;106024;1254;65956;-78
2023/02/27 05:02:55;;;;;;;7.90;3.30;;;;;;;-1.55;94.55;98505.70;106061;1254;71040;-77
2023/02/27 05:05:26;;;;;;;9.60;3.70;;;;;;;-1.55;94.59;98507.63;106019;1258;71408;-78
2023/02/27 05:07:58;;;;;;;13.30;5.00;;;;;;;-1.55;93.65;98505.65;106027;1254;61271;-77
2023/02/27 05:10:35;;;;;;;10.30;3.90;;;;;;;-1.52;94.55;98508.64;106047;1260;61243;-77
2023/02/27 05:13:05;;;;;;;9.80;4.00;;;;;;;-1.51;94.41;98507.09;105993;1254;73689;-78
2023/02/27 05:15:38;;;;;;;15.40;5.30;;;;;;;-1.51;93.70;98513.67;105945;1255;70949;-77
2023/02/27 05:18:06;;;;;;;16.50;6.30;;;;;;;-1.48;94.18;98517.41;106037;1259;70481;-78
2023/02/27 05:20:53;;;;;;;;;;;;;;;-1.46;94.48;98523.84;106178;1255;61342;-78
2023/02/27 05:23:30;;;;;;;8.80;4.70;;;;;;;-1.44;95.20;98524.87;105806;1254;61235;-78
2023/02/27 05:26:00;;;;;;;10.70;4.60;;;;;;;-1.42;94.97;98527.78;106103;1254;73401;-78
2023/02/27 05:28:33;;;;;;;9.60;5.50;;;;;;;-1.45;92.18;98528.05;106286;1259;71041;-78
2023/02/27 05:31:13;;;;;;;9.30;4.90;;;;;;;-1.47;93.14;98525.59;106342;1258;72535;-79
2023/02/27 05:34:06;;;;;;;9.20;4.30;;;;;;;-1.45;93.86;98529.55;106137;1254;63268;-77
2023/02/27 05:36:34;;;;;;;26.00;6.70;;;;;;;-1.47;92.50;98531.84;106040;1254;61122;-77
2023/02/27 05:39:03;;;;;;;6.50;4.80;;;;;;;-1.49;92.43;98539.15;106275;1257;73445;-77
2023/02/27 05:41:37;;;;;;;11.80;4.90;;;;;;;-1.48;92.93;98541.33;106351;1257;69951;-78
2023/02/27 05:44:12;;;;;;;12.10;5.30;;;;;;;-1.46;93.44;98539.60;106089;1254;72397;-77
2023/02/27 05:46:42;;;;;;;12.50;5.20;;;;;;;-1.42;94.00;98541.68;106204;1258;61228;-78
2023/02/27 05:49:22;;;;;;;20.80;6.10;;;;;;;-1.41;94.34;98541.29;106002;1259;61326;-77
2023/02/27 05:51:49;;;;;;;12.30;6.60;;;;;;;-1.36;94.79;98543.74;106058;1259;73460;-77
2023/02/27 05:54:23;;;;;;;14.70;7.40;;;;;;;-1.34;94.40;98547.81;106073;1254;69416;-78
2023/02/27 05:56:51;;;;;;;25.30;9.10;;;;;;;-1.31;94.81;98548.48;106126;1254;73103;-78
2023/02/27 05:59:32;;;;;;;18.20;5.70;;;;;;;-1.27;95.72;98546.36;106201;1259;61266;-78
2023/02/27 06:01:58;;;;;;;14.60;4.90;;;;;;;-1.23;96.28;98551.52;105997;1254;59458;-78
2023/02/27 06:04:25;;;;;;;8.60;3.80;;;;;;;-1.19;96.52;98553.10;106060;1254;61274;-77
2023/02/27 06:06:52;;;;;;;9.40;5.50;;;;;;;-1.15;96.54;98556.44;106026;1260;70077;-78
2023/02/27 06:09:19;;;;;;;39.70;19.10;;;;;;;-1.09;96.47;98554.05;106009;1260;61308;-78
2023/02/27 06:11:46;;;;;;;27.10;10.00;;;;;;;-1.05;96.74;98553.29;106086;1259;61228;-78
2023/02/27 06:14:13;;;;;;;19.00;7.70;;;;;;;-1.03;96.78;98554.66;106030;1254;61343;-77
2023/02/27 06:16:39;;;;;;;15.00;8.10;;;;;;;-1.03;95.17;98557.20;106078;1259;61218;-78
2023/02/27 06:19:06;;;;;;;11.90;5.70;;;;;;;-0.99;95.97;98560.88;106096;1258;61218;-77
2023/02/27 06:21:32;;;;;;;20.00;8.20;;;;;;;-0.92;96.54;98562.36;106008;1254;61210;-77
2023/02/27 06:23:59;;;;;;;18.00;6.60;;;;;;;-0.87;96.73;98562.23;106086;1259;61279;-77
2023/02/27 06:26:25;;;;;;;14.00;6.00;;;;;;;-0.87;95.61;98564.31;106044;1254;61260;-78
2023/02/27 06:28:51;;;;;;;9.50;5.40;;;;;;;-0.87;94.25;98563.50;106069;1254;62171;-77
2023/02/27 06:31:18;;;;;;;9.70;6.00;;;;;;;-0.88;93.46;98565.91;106081;1260;61345;-78
2023/02/27 06:33:44;;;;;;;16.90;7.30;;;;;;;-0.87;93.72;98566.41;106055;1254;61207;-78
2023/02/27 06:36:11;;;;;;;20.60;12.60;;;;;;;-0.82;95.45;98561.95;106118;1254;61365;-78
2023/02/27 06:38:37;;;;;;;14.60;8.70;;;;;;;-0.83;92.37;98572.17;106153;1260;61215;-77
2023/02/27 06:41:04;;;;;;;15.40;9.10;;;;;;;-0.87;89.64;98575.83;106178;1258;61439;-78
2023/02/27 06:43:33;;;;;;;11.50;6.60;;;;;;;-0.82;92.69;98572.67;106826;1254;61376;-78
2023/02/27 06:45:59;;;;;;;21.30;6.60;;;;;;;-0.80;91.53;98576.16;107363;1254;71574;-78
2023/02/27 06:48:26;;;;;;;26.30;17.70;;;;;;;-0.81;90.84;98576.20;106675;1254;59596;-77
2023/02/27 06:50:53;;;;;;;51.20;35.80;;;;;;;-0.78;91.83;98575.41;107897;1259;60023;-78
2023/02/27 06:53:19;;;;;;;32.70;21.80;;;;;;;-0.71;92.92;98578.69;108775;1254;73729;-79
2023/02/27 06:55:46;;;;;;;20.20;8.60;;;;;;;-0.68;93.72;98579.49;108996;1254;59880;-77
2023/02/27 06:58:13;;;;;;;16.90;7.10;;;;;;;-0.66;93.41;98580.73;108303;1257;61232;-77
2023/02/27 07:00:39;;;;;;;13.20;5.80;;;;;;;-0.65;93.23;98582.96;106125;1257;61288;-78
2023/02/27 07:03:05;;;;;;;9.20;5.90;;;;;;;-0.63;92.55;98590.50;106338;1260;61343;-77
2023/02/27 07:05:32;;;;;;;9.30;3.80;;;;;;;-0.63;93.00;98589.76;107173;1254;61154;-77
2023/02/27 07:07:58;;;;;;;17.60;5.70;;;;;;;-0.72;87.36;98593.55;107331;1259;61260;-76
2023/02/27 07:10:25;;;;;;;20.10;11.30;;;;;;;-0.81;85.83;98597.33;106424;1257;61212;-77
2023/02/27 07:12:52;;;;;;;24.70;12.00;;;;;;;-0.78;88.35;98592.84;106382;1254;61218;-77
2023/02/27 07:15:18;;;;;;;12.00;6.80;;;;;;;-0.75;88.87;98599.76;107050;1255;61166;-77
2023/02/27 07:17:45;;;;;;;12.60;3.90;;;;;;;-0.69;91.62;98599.84;107991;1255;61107;-78
2023/02/27 07:20:11;;;;;;;7.40;3.20;;;;;;;-0.70;90.59;98604.33;106467;1259;61220;-77
2023/02/27 07:22:38;;;;;;;8.20;3.20;;;;;;;-0.70;89.50;98609.93;108813;1254;60115;-77
2023/02/27 07:25:05;;;;;;;9.70;4.40;;;;;;;-0.65;90.87;98611.13;107457;1256;61278;-78
2023/02/27 07:27:32;;;;;;;10.70;3.70;;;;;;;-0.66;89.44;98614.77;108154;1259;60216;-77
2023/02/27 07:29:59;;;;;;;8.00;3.90;;;;;;;-0.62;89.94;98617.02;106989;1255;73927;-78
2023/02/27 07:32:26;;;;;;;8.00;4.40;;;;;;;-0.54;89.70;98618.20;106900;1256;71206;-79
2023/02/27 07:34:53;;;;;;;18.80;12.00;;;;;;;-0.54;85.78;98620.83;107593;1256;62883;-78
2023/02/27 07:37:19;;;;;;;22.40;12.80;;;;;;;-0.52;85.28;98621.74;106645;1255;61273;-78
2023/02/27 07:39:45;;;;;;;48.20;22.30;;;;;;;-0.48;85.89;98623.17;106866;1257;61205;-78
2023/02/27 07:42:12;;;;;;;21.20;14.60;;;;;;;-0.43;88.55;98625.83;106311;1255;61353;-77
2023/02/27 07:44:39;;;;;;;52.60;31.60;;;;;;;-0.46;85.64;98633.50;108141;1254;61116;-78
2023/02/27 07:47:05;;;;;;;44.40;20.10;;;;;;;-0.44;85.88;98638.43;108819;1257;72202;-77
2023/02/27 07:49:32;;;;;;;208.50;91.30;;;;;;;-0.35;88.31;98641.48;108140;1254;61308;-78
2023/02/27 07:51:58;;;;;;;29.00;14.80;;;;;;;-0.38;85.24;98645.68;107094;1258;59539;-78
2023/02/27 07:54:26;;;;;;;18.90;10.30;;;;;;;-0.38;84.25;98642.90;107953;1260;61240;-78
2023/02/27 07:56:53;;;;;;;12.30;7.10;;;;;;;-0.30;84.52;98648.70;107244;1258;70107;-77
2023/02/27 07:59:20;;;;;;;10.50;5.90;;;;;;;-0.21;85.19;98643.42;107573;1254;73330;-77
2023/02/27 08:01:47;;;;;;;16.70;10.80;;;;;;;-0.13;85.63;98643.92;106427;1259;61161;-78
2023/02/27 08:04:14;;;;;;;14.00;6.20;;;;;;;-0.02;86.63;98642.97;106843;1258;61243;-77
2023/02/27 08:06:40;;;;;;;12.70;4.60;;;;;;;0.14;87.68;98642.39;106524;1260;73550;-77
2023/02/27 08:09:07;;;;;;;28.70;17.50;;;;;;;0.17;88.09;98642.66;106943;1259;72400;-77
2023/02/27 08:11:33;;;;;;;26.80;10.80;;;;;;;0.17;86.98;98650.27;106591;1257;72171;-77
2023/02/27 08:14:00;;;;;;;84.90;41.00;;;;;;;0.27;87.67;98651.60;107627;1254;61145;-78
2023/02/27 08:16:26;;;;;;;279.70;156.10;;;;;;;0.25;87.32;98655.58;106935;1255;61144;-78
2023/02/27 08:18:53;;;;;;;191.80;105.20;;;;;;;0.20;85.02;98653.45;106417;1259;62562;-77
2023/02/27 08:21:19;;;;;;;40.10;24.80;;;;;;;0.23;85.36;98656.95;106519;1262;61228;-78
2023/02/27 08:23:46;;;;;;;8.60;5.10;;;;;;;0.33;87.33;98659.09;106866;1257;61269;-78
2023/02/27 08:26:12;;;;;;;128.20;48.50;;;;;;;0.19;86.48;98663.73;107256;1257;61284;-78
2023/02/27 08:28:39;;;;;;;39.80;17.40;;;;;;;-0.08;83.92;98664.90;107865;1257;61421;-77
2023/02/27 08:31:06;;;;;;;16.90;7.70;;;;;;;-0.18;83.45;98669.77;106587;1260;61225;-78
2023/02/27 08:33:32;;;;;;;15.40;6.40;;;;;;;-0.29;84.58;98663.16;107470;1260;71011;-79
2023/02/27 08:35:59;;;;;;;21.30;11.40;;;;;;;-0.31;87.58;98662.62;107396;1259;72327;-78
2023/02/27 08:38:25;;;;;;;140.50;52.00;;;;;;;-0.28;88.02;98664.72;108999;1254;59522;-77
2023/02/27 08:40:52;;;;;;;209.00;74.30;;;;;;;-0.28;87.79;98669.33;108748;1254;60098;-78
2023/02/27 08:43:21;;;;;;;37.40;15.60;;;;;;;-0.21;88.40;98674.44;106570;1255;74299;-77
2023/02/27 08:45:48;;;;;;;10.20;4.20;;;;;;;-0.19;88.54;98675.40;107568;1254;69935;-78
2023/02/27 08:48:16;;;;;;;7.00;3.60;;;;;;;-0.11;87.75;98676.11;107468;1257;71471;-77
2023/02/27 08:50:42;;;;;;;9.20;3.40;;;;;;;-0.16;87.82;98676.45;106376;1255;61214;-77
2023/02/27 08:53:09;;;;;;;12.30;6.20;;;;;;;-0.11;88.48;98677.17;106323;1255;61263;-77
2023/02/27 08:55:35;;;;;;;7.50;4.80;;;;;;;0.01;88.83;98679.42;106764;1260;72862;-78
2023/02/27 08:58:02;;;;;;;12.70;7.20;;;;;;;0.20;89.27;98688.66;108283;1253;70274;-77
2023/02/27 09:00:29;;;;;;;7.70;4.00;;;;;;;0.30;88.87;98688.23;107122;1259;72591;-77
2023/02/27 09:02:56;;;;;;;12.60;6.50;;;;;;;0.46;89.02;98686.34;106191;1254;61262;-78
2023/02/27 09:05:22;;;;;;;57.50;26.10;;;;;;;0.53;87.64;98692.98;106814;1255;61240;-78
2023/02/27 09:07:49;;;;;;;40.00;21.70;;;;;;;0.70;88.64;98690.38;106910;1254;59224;-78
2023/02/27 09:10:16;;;;;;;20.20;14.70;;;;;;;0.80;88.74;98690.25;106214;1259;71424;-78
2023/02/27 09:12:43;;;;;;;13.10;5.80;;;;;;;0.83;87.53;98694.64;106458;1258;73078;-78
2023/02/27 09:15:10;;;;;;;11.80;7.30;;;;;;;0.75;86.28;98696.18;107687;1256;61209;-78
2023/02/27 09:17:36;;;;;;;11.00;4.40;;;;;;;1.00;88.00;98700.48;107337;1254;61203;-78
2023/02/27 09:20:04;;;;;;;10.60;5.40;;;;;;;1.07;83.90;98706.03;106806;1257;61269;-77
2023/02/27 09:22:30;;;;;;;19.10;3.80;;;;;;;1.27;84.83;98708.42;106138;1262;70890;-78
2023/02/27 09:24:56;;;;;;;5.80;2.40;;;;;;;1.36;84.06;98706.58;107365;1254;61240;-78
2023/02/27 09:27:23;;;;;;;17.10;5.40;;;;;;;1.22;81.62;98714.23;107940;1257;61198;-79
2023/02/27 09:29:54;;;;;;;5.50;2.60;;;;;;;1.31;82.18;98719.60;107815;1254;61270;-78
2023/02/27 09:32:21;;;;;;;12.10;3.20;;;;;;;1.35;80.51;98719.69;106308;1256;74419;-79
2023/02/27 09:34:48;;;;;;;10.60;2.60;;;;;;;1.62;81.70;98716.88;106817;1260;69871;-77
2023/02/27 09:37:15;;;;;;;6.00;2.80;;;;;;;1.44;78.05;98713.34;106432;1254;71994;-78
2023/02/27 09:39:41;;;;;;;10.80;4.80;;;;;;;1.23;78.08;98715.72;107265;1259;61228;-77
2023/02/27 09:42:19;;;;;;;9.50;4.40;;;;;;;1.12;81.61;98718.86;106325;1259;61230;-78
2023/02/27 09:44:49;;;;;;;12.80;4.80;;;;;;;1.41;82.52;98715.13;108854;1254;74617;-77
2023/02/27 09:47:23;;;;;;;8.60;3.90;;;;;;;1.55;83.42;98713.95;108779;1254;69838;-77
2023/02/27 09:49:58;;;;;;;45.70;14.40;;;;;;;1.55;81.15;98721.30;106893;1259;72935;-76
2023/02/27 09:52:26;;;;;;;13.80;4.40;;;;;;;1.60;81.09;98721.23;107115;1260;59443;-77
2023/02/27 09:54:53;;;;;;;10.50;4.00;;;;;;;1.52;79.54;98721.43;106713;1257;61148;-77
2023/02/27 09:57:31;;;;;;;192.90;59.50;;;;;;;1.50;78.28;98727.23;107721;1260;74543;-77
2023/02/27 10:00:07;;;;;;;27.90;14.40;;;;;;;1.27;77.96;98725.42;107029;1260;70948;-78
2023/02/27 10:02:50;;;;;;;738.30;274.30;;;;;;;1.19;78.98;98725.86;106699;1258;71716;-77
2023/02/27 10:05:41;;;;;;;208.30;77.10;;;;;;;1.02;78.39;98728.95;107741;1254;60657;-77
2023/02/27 10:08:29;;;;;;;71.80;29.50;;;;;;;0.96;77.24;98732.16;107841;1260;60682;-77
2023/02/27 10:10:59;;;;;;;123.30;45.30;;;;;;;1.02;77.74;98736.61;106348;1254;73542;-78
2023/02/27 10:13:38;;;;;;;21.30;9.60;;;;;;;0.83;76.46;98735.29;106289;1260;70463;-77
2023/02/27 10:16:05;;;;;;;15.40;6.10;;;;;;;0.77;77.20;98734.39;107144;1258;72818;-77
2023/02/27 10:18:43;;;;;;;18.10;8.70;;;;;;;0.87;78.51;98734.89;107311;1254;60691;-79
2023/02/27 10:21:12;;;;;;;29.30;12.10;;;;;;;0.90;77.32;98732.19;106492;1254;61180;-77
2023/02/27 10:23:49;;;;;;;12.60;5.80;;;;;;;1.05;78.19;98738.07;107050;1254;74025;-77
2023/02/27 10:26:21;;;;;;;15.10;7.30;;;;;;;1.16;78.19;98735.21;106440;1260;69823;-77
2023/02/27 10:28:47;;;;;;;11.80;6.10;;;;;;;1.14;76.32;98735.59;106688;1254;72602;-78
2023/02/27 10:31:16;;;;;;;9.30;5.00;;;;;;;1.22;76.38;98736.55;106745;1256;61212;-78
2023/02/27 10:33:43;;;;;;;12.40;5.90;;;;;;;1.22;75.26;98735.08;107471;1255;61208;-78
2023/02/27 10:36:10;;;;;;;5.60;3.40;;;;;;;1.31;76.77;98733.15;108839;1254;74544;-78
2023/02/27 10:38:43;;;;;;;8.60;3.70;;;;;;;1.39;75.72;98733.50;107294;1259;71512;-77
2023/02/27 10:41:11;;;;;;;9.60;4.80;;;;;;;1.32;73.22;98733.27;106202;1254;72942;-78
2023/02/27 10:43:39;;;;;;;7.60;4.40;;;;;;;1.46;75.26;98731.20;106701;1260;63227;-77
2023/02/27 10:46:13;;;;;;;27.40;14.70;;;;;;;1.41;73.63;98733.29;106783;1254;61168;-78
2023/02/27 10:48:39;;;;;;;48.10;23.20;;;;;;;1.49;74.24;98729.93;108436;1254;74504;-77
2023/02/27 10:51:25;;;;;;;28.30;8.90;;;;;;;1.68;75.89;98729.78;108585;1259;60992;-77
2023/02/27 10:54:12;;;;;;;16.10;5.90;;;;;;;2.05;76.62;98729.68;106676;1254;72583;-78
2023/02/27 10:56:39;;;;;;;25.60;8.90;;;;;;;2.07;73.32;98727.80;108276;1258;59568;-79
2023/02/27 10:59:14;;;;;;;19.60;8.10;;;;;;;2.26;76.30;98728.91;106697;1254;61212;-77
2023/02/27 11:01:55;;;;;;;7.10;4.70;;;;;;;2.12;70.72;98734.12;106213;1260;74549;-77
2023/02/27 11:04:33;;;;;;;7.60;2.90;;;;;;;2.26;72.57;98733.23;107793;1254;69974;-78
2023/02/27 11:07:00;;;;;;;9.10;5.30;;;;;;;2.08;69.56;98735.06;107094;1254;72556;-78
2023/02/27 11:09:29;;;;;;;13.80;8.70;;;;;;;1.90;68.98;98733.76;106900;1253;61205;-77
2023/02/27 11:12:09;;;;;;;24.60;14.00;;;;;;;1.84;69.36;98736.20;106269;1254;62255;-77
2023/02/27 11:14:46;;;;;;;36.00;17.50;;;;;;;1.66;68.98;98739.36;107427;1254;73721;-78
2023/02/27 11:17:20;;;;;;;10.80;5.30;;;;;;;1.61;69.70;98740.91;107600;1254;70362;-78
2023/02/27 11:19:48;;;;;;;8.50;6.30;;;;;;;1.74;71.00;98737.72;107286;1254;71527;-78
2023/02/27 11:22:17;;;;;;;10.30;6.80;;;;;;;1.59;69.96;98738.95;106441;1254;61244;-79
2023/02/27 11:24:44;;;;;;;16.30;11.70;;;;;;;1.39;67.34;98738.67;107718;1257;60284;-77
2023/02/27 11:27:25;;;;;;;10.90;4.80;;;;;;;1.25;68.39;98738.03;107958;1256;73751;-78
2023/02/27 11:29:57;;;;;;;5.10;3.30;;;;;;;1.43;69.18;98740.16;107038;1254;69941;-77
2023/02/27 11:32:24;;;;;;;7.80;3.30;;;;;;;1.56;69.96;98735.94;106871;1254;71173;-78
2023/02/27 11:34:51;;;;;;;7.20;2.70;;;;;;;1.68;70.60;98733.45;107999;1254;60321;-79
2023/02/27 11:37:31;;;;;;;5.30;2.50;;;;;;;1.83;70.35;98734.05;108796;1256;59636;-79